^^
Saratoga-Weather Station Historical Data
Daily Summary for November 11, 2021 Units:  Both    English   Metric
Daily Weekly Monthly Yearly Custom
  High: Low: Average:
Temperature: 37.4 °F /  3 °C 30 °F /  -1.1 °C 33.8 °F /  1 °C
Dew Point: 36.7 °F /  2.6 °C 28.9 °F /  -1.7 °C 32.9 °F /  0.5 °C
Humidity: 98% 96% 97%
Wind Speed: 2.9mph /  4.7km/h - 0.4mph /  0.6km/h
Wind Gust: 4mph /  6.4km/h - -
Wind- - ESE
Pressure: 30.3 in /  1025.7 hPa 30.2 in /  1023.4 hPa -
Precipitation: 0.01 in /  0.2 mm    
Historical Graphs
 
 
Tabular Data for November 11, 2021
Time Temperature Dew Point Pressure Wind Wind Speed Wind Gust Humidity Rainfall Rate (Hourly) solar
00:01 33.6 °F /  0.9 °C 32.5 °F /  0.3 °C 30.3in /  1024.4hPa Calm     96% 0in /  0.0mm 0 W/m2
00:06 33.6 °F /  0.9 °C 32.5 °F /  0.3 °C 30.3in /  1024.4hPa Calm     96% 0in /  0.0mm 0 W/m2
00:11 33.6 °F /  0.9 °C 32.5 °F /  0.3 °C 30.3in /  1024.4hPa Calm     96% 0in /  0.0mm 0 W/m2
00:16 33.4 °F /  0.8 °C 32.4 °F /  0.2 °C 30.2in /  1024.0hPa Calm     96% 0in /  0.0mm 0 W/m2
00:21 33.4 °F /  0.8 °C 32.4 °F /  0.2 °C 30.2in /  1024.0hPa Calm     96% 0in /  0.0mm 0 W/m2
00:26 33.4 °F /  0.8 °C 32.4 °F /  0.2 °C 30.2in /  1024.0hPa Calm     96% 0in /  0.0mm 0 W/m2
00:31 33.3 °F /  0.7 °C 32.2 °F /  0.1 °C 30.2in /  1024.0hPa Calm     96% 0in /  0.0mm 0 W/m2
00:36 33.3 °F /  0.7 °C 32.2 °F /  0.1 °C 30.2in /  1024.0hPa SSE 2mph /  3.2km/h 2mph /  3.2km/h 96% 0in /  0.0mm 0 W/m2
00:41 33.3 °F /  0.7 °C 32.2 °F /  0.1 °C 30.2in /  1024.0hPa Calm   2mph /  3.2km/h 96% 0in /  0.0mm 0 W/m2
00:46 33.4 °F /  0.8 °C 32.4 °F /  0.2 °C 30.2in /  1023.7hPa Calm     96% 0in /  0.0mm 0 W/m2
00:51 33.3 °F /  0.7 °C 32.2 °F /  0.1 °C 30.2in /  1023.7hPa Calm   2mph /  3.2km/h 96% 0in /  0.0mm 0 W/m2
00:56 33.3 °F /  0.7 °C 32.2 °F /  0.1 °C 30.2in /  1023.7hPa Calm     96% 0in /  0.0mm 0 W/m2
01:01 33.1 °F /  0.6 °C 32 °F /  0 °C 30.2in /  1023.7hPa Calm     96% 0in /  0.0mm 0 W/m2
01:06 32.9 °F /  0.5 °C 31.8 °F /  -0.1 °C 30.2in /  1023.7hPa SSW 0.9mph /  1.4km/h 2mph /  3.2km/h 96% 0in /  0.0mm 0 W/m2
01:11 32.7 °F /  0.4 °C 31.6 °F /  -0.2 °C 30.2in /  1023.7hPa SSW 0.9mph /  1.4km/h 2mph /  3.2km/h 96% 0in /  0.0mm 0 W/m2
01:16 32.9 °F /  0.5 °C 31.8 °F /  -0.1 °C 30.2in /  1023.7hPa Calm     96% 0in /  0.0mm 0 W/m2
01:21 32.9 °F /  0.5 °C 31.8 °F /  -0.1 °C 30.2in /  1023.7hPa Calm   2mph /  3.2km/h 96% 0in /  0.0mm 0 W/m2
01:26 32.9 °F /  0.5 °C 31.8 °F /  -0.1 °C 30.2in /  1023.7hPa Calm     96% 0in /  0.0mm 0 W/m2
01:31 32.9 °F /  0.5 °C 31.8 °F /  -0.1 °C 30.2in /  1023.7hPa Calm     96% 0in /  0.0mm 0 W/m2
01:36 32.7 °F /  0.4 °C 31.6 °F /  -0.2 °C 30.2in /  1023.7hPa Calm     96% 0in /  0.0mm 0 W/m2
01:41 32.7 °F /  0.4 °C 31.6 °F /  -0.2 °C 30.2in /  1023.7hPa Calm     96% 0in /  0.0mm 0 W/m2
01:46 32.5 °F /  0.3 °C 31.5 °F /  -0.3 °C 30.2in /  1023.7hPa Calm     96% 0in /  0.0mm 0 W/m2
01:51 32.5 °F /  0.3 °C 31.5 °F /  -0.3 °C 30.2in /  1023.7hPa Calm     96% 0in /  0.0mm 0 W/m2
01:56 32.4 °F /  0.2 °C 31.3 °F /  -0.4 °C 30.2in /  1023.7hPa Calm     96% 0in /  0.0mm 0 W/m2
02:01 32.4 °F /  0.2 °C 31.3 °F /  -0.4 °C 30.2in /  1023.7hPa Calm     96% 0in /  0.0mm 0 W/m2
02:06 32.2 °F /  0.1 °C 31.1 °F /  -0.5 °C 30.2in /  1023.7hPa Calm     96% 0in /  0.0mm 0 W/m2
02:11 32 °F /  0 °C 30.9 °F /  -0.6 °C 30.2in /  1023.7hPa Calm     96% 0in /  0.0mm 0 W/m2
02:16 31.8 °F /  -0.1 °C 30.7 °F /  -0.7 °C 30.2in /  1023.7hPa Calm     96% 0in /  0.0mm 0 W/m2
02:21 31.8 °F /  -0.1 °C 30.7 °F /  -0.7 °C 30.2in /  1024.0hPa Calm     96% 0in /  0.0mm 0 W/m2
02:26 31.6 °F /  -0.2 °C 30.6 °F /  -0.8 °C 30.2in /  1023.7hPa Calm     96% 0in /  0.0mm 0 W/m2
02:31 31.5 °F /  -0.3 °C 30.4 °F /  -0.9 °C 30.2in /  1023.7hPa Calm     96% 0in /  0.0mm 0 W/m2
02:36 31.5 °F /  -0.3 °C 30.4 °F /  -0.9 °C 30.2in /  1023.7hPa Calm     96% 0in /  0.0mm 0 W/m2
02:42 31.5 °F /  -0.3 °C 30.4 °F /  -0.9 °C 30.2in /  1023.7hPa Calm     96% 0in /  0.0mm 0 W/m2
02:47 31.5 °F /  -0.3 °C 30.4 °F /  -0.9 °C 30.2in /  1023.7hPa Calm     96% 0in /  0.0mm 0 W/m2
02:52 31.5 °F /  -0.3 °C 30.4 °F /  -0.9 °C 30.2in /  1023.7hPa Calm     96% 0in /  0.0mm 0 W/m2
02:57 31.5 °F /  -0.3 °C 30.4 °F /  -0.9 °C 30.2in /  1023.7hPa Calm     96% 0in /  0.0mm 0 W/m2
03:02 31.5 °F /  -0.3 °C 30.4 °F /  -0.9 °C 30.2in /  1023.7hPa Calm     96% 0in /  0.0mm 0 W/m2
03:07 31.5 °F /  -0.3 °C 30.4 °F /  -0.9 °C 30.2in /  1023.7hPa Calm     96% 0in /  0.0mm 0 W/m2
03:12 31.3 °F /  -0.4 °C 30.2 °F /  -1 °C 30.2in /  1023.7hPa Calm     96% 0in /  0.0mm 0 W/m2
03:17 31.3 °F /  -0.4 °C 30.2 °F /  -1 °C 30.2in /  1023.7hPa Calm     96% 0in /  0.0mm 0 W/m2
03:22 31.3 °F /  -0.4 °C 30.2 °F /  -1 °C 30.2in /  1023.7hPa Calm     96% 0in /  0.0mm 0 W/m2
03:27 31.3 °F /  -0.4 °C 30.2 °F /  -1 °C 30.2in /  1023.7hPa Calm     96% 0in /  0.0mm 0 W/m2
03:32 31.3 °F /  -0.4 °C 30.2 °F /  -1 °C 30.2in /  1023.7hPa Calm     96% 0in /  0.0mm 0 W/m2
03:37 31.3 °F /  -0.4 °C 30.2 °F /  -1 °C 30.2in /  1023.7hPa Calm     96% 0in /  0.0mm 0 W/m2
03:42 31.3 °F /  -0.4 °C 30.2 °F /  -1 °C 30.2in /  1023.7hPa Calm     96% 0in /  0.0mm 0 W/m2
03:47 31.3 °F /  -0.4 °C 30.2 °F /  -1 °C 30.2in /  1023.7hPa Calm     96% 0in /  0.0mm 0 W/m2
03:52 31.1 °F /  -0.5 °C 30 °F /  -1.1 °C 30.2in /  1023.7hPa Calm     96% 0in /  0.0mm 0 W/m2
03:57 30.9 °F /  -0.6 °C 29.8 °F /  -1.2 °C 30.2in /  1023.4hPa Calm     96% 0in /  0.0mm 0 W/m2
04:02 30.9 °F /  -0.6 °C 29.8 °F /  -1.2 °C 30.2in /  1023.4hPa Calm     96% 0in /  0.0mm 0 W/m2
04:07 30.9 °F /  -0.6 °C 29.8 °F /  -1.2 °C 30.2in /  1023.4hPa Calm     96% 0in /  0.0mm 0 W/m2
04:12 30.7 °F /  -0.7 °C 29.7 °F /  -1.3 °C 30.2in /  1023.4hPa Calm     96% 0in /  0.0mm 0 W/m2
04:17 30.7 °F /  -0.7 °C 29.7 °F /  -1.3 °C 30.2in /  1023.4hPa SSW 0.9mph /  1.4km/h 2mph /  3.2km/h 96% 0in /  0.0mm 0 W/m2
04:22 30.6 °F /  -0.8 °C 29.5 °F /  -1.4 °C 30.2in /  1023.4hPa Calm   1mph /  1.6km/h 96% 0in /  0.0mm 0 W/m2
04:27 30.6 °F /  -0.8 °C 29.5 °F /  -1.4 °C 30.2in /  1023.4hPa Calm     96% 0in /  0.0mm 0 W/m2
04:32 30.4 °F /  -0.9 °C 29.3 °F /  -1.5 °C 30.2in /  1023.4hPa Calm     96% 0in /  0.0mm 0 W/m2
04:37 30.2 °F /  -1 °C 29.1 °F /  -1.6 °C 30.2in /  1023.4hPa Calm     96% 0in /  0.0mm 0 W/m2
04:42 30 °F /  -1.1 °C 28.9 °F /  -1.7 °C 30.2in /  1023.4hPa Calm     96% 0in /  0.0mm 0 W/m2
04:47 30 °F /  -1.1 °C 28.9 °F /  -1.7 °C 30.2in /  1023.4hPa Calm     96% 0in /  0.0mm 0 W/m2
04:52 30 °F /  -1.1 °C 28.9 °F /  -1.7 °C 30.2in /  1023.4hPa Calm     96% 0in /  0.0mm 0 W/m2
04:57 30 °F /  -1.1 °C 28.9 °F /  -1.7 °C 30.2in /  1023.4hPa Calm     96% 0in /  0.0mm 0 W/m2
05:02 30 °F /  -1.1 °C 28.9 °F /  -1.7 °C 30.2in /  1023.4hPa Calm     96% 0in /  0.0mm 0 W/m2
05:07 30 °F /  -1.1 °C 28.9 °F /  -1.7 °C 30.2in /  1023.4hPa SE 0.9mph /  1.4km/h 2mph /  3.2km/h 96% 0in /  0.0mm 0 W/m2
05:12 30.2 °F /  -1 °C 29.1 °F /  -1.6 °C 30.2in /  1023.4hPa Calm   1mph /  1.6km/h 96% 0in /  0.0mm 0 W/m2
05:17 30.4 °F /  -0.9 °C 29.3 °F /  -1.5 °C 30.2in /  1023.7hPa SE 0.9mph /  1.4km/h 1mph /  1.6km/h 96% 0in /  0.0mm 0 W/m2
05:22 30.4 °F /  -0.9 °C 29.3 °F /  -1.5 °C 30.2in /  1023.7hPa Calm   1mph /  1.6km/h 96% 0in /  0.0mm 0 W/m2
05:27 30.4 °F /  -0.9 °C 29.3 °F /  -1.5 °C 30.2in /  1024.0hPa Calm     96% 0in /  0.0mm 0 W/m2
05:32 30.4 °F /  -0.9 °C 29.3 °F /  -1.5 °C 30.2in /  1024.0hPa Calm   1mph /  1.6km/h 96% 0in /  0.0mm 0 W/m2
05:37 30.6 °F /  -0.8 °C 29.5 °F /  -1.4 °C 30.2in /  1024.0hPa Calm     96% 0in /  0.0mm 0 W/m2
05:42 30.6 °F /  -0.8 °C 29.5 °F /  -1.4 °C 30.2in /  1024.0hPa Calm     96% 0in /  0.0mm 0 W/m2
05:47 30.6 °F /  -0.8 °C 29.5 °F /  -1.4 °C 30.2in /  1024.0hPa Calm     96% 0in /  0.0mm 0 W/m2
05:52 30.6 °F /  -0.8 °C 29.5 °F /  -1.4 °C 30.2in /  1024.0hPa Calm   1mph /  1.6km/h 96% 0in /  0.0mm 0 W/m2
05:57 30.6 °F /  -0.8 °C 29.5 °F /  -1.4 °C 30.2in /  1024.0hPa Calm     96% 0in /  0.0mm 0 W/m2
06:02 30.6 °F /  -0.8 °C 29.8 °F /  -1.2 °C 30.2in /  1024.0hPa Calm     97% 0in /  0.0mm 0 W/m2
06:07 30.7 °F /  -0.7 °C 30 °F /  -1.1 °C 30.3in /  1024.4hPa Calm     97% 0in /  0.0mm 0 W/m2
06:12 30.7 °F /  -0.7 °C 30 °F /  -1.1 °C 30.3in /  1024.4hPa Calm     97% 0in /  0.0mm 0 W/m2
06:17 30.7 °F /  -0.7 °C 30 °F /  -1.1 °C 30.3in /  1024.4hPa Calm     97% 0in /  0.0mm 0 W/m2
06:22 30.7 °F /  -0.7 °C 30 °F /  -1.1 °C 30.3in /  1024.4hPa Calm     97% 0in /  0.0mm 0 W/m2
06:27 30.7 °F /  -0.7 °C 30 °F /  -1.1 °C 30.3in /  1024.4hPa Calm     97% 0in /  0.0mm 0 W/m2
06:32 30.9 °F /  -0.6 °C 30.2 °F /  -1 °C 30.3in /  1024.4hPa Calm     97% 0in /  0.0mm 0 W/m2
06:37 30.9 °F /  -0.6 °C 30.2 °F /  -1 °C 30.3in /  1024.4hPa Calm     97% 0in /  0.0mm 0 W/m2
06:42 30.9 °F /  -0.6 °C 30.2 °F /  -1 °C 30.2in /  1024.0hPa Calm     97% 0in /  0.0mm 0 W/m2
06:47 30.9 °F /  -0.6 °C 30.2 °F /  -1 °C 30.3in /  1024.4hPa Calm     97% 0in /  0.0mm 0 W/m2
06:52 30.9 °F /  -0.6 °C 30.2 °F /  -1 °C 30.3in /  1024.4hPa Calm     97% 0in /  0.0mm 0 W/m2
06:57 30.9 °F /  -0.6 °C 30.2 °F /  -1 °C 30.3in /  1024.4hPa Calm     97% 0in /  0.0mm 0 W/m2
07:02 30.9 °F /  -0.6 °C 30.2 °F /  -1 °C 30.2in /  1024.0hPa Calm     97% 0in /  0.0mm 0 W/m2
07:07 30.9 °F /  -0.6 °C 29.8 °F /  -1.2 °C 30.3in /  1024.4hPa Calm     96% 0in /  0.0mm 0 W/m2
07:12 31.1 °F /  -0.5 °C 30 °F /  -1.1 °C 30.3in /  1024.4hPa Calm     96% 0in /  0.0mm 0 W/m2
07:17 31.3 °F /  -0.4 °C 30.6 °F /  -0.8 °C 30.2in /  1024.0hPa WNW 0.9mph /  1.4km/h 2mph /  3.2km/h 97% 0in /  0.0mm 0 W/m2
07:22 31.3 °F /  -0.4 °C 30.6 °F /  -0.8 °C 30.2in /  1024.0hPa Calm     97% 0in /  0.0mm 0 W/m2
07:27 31.5 °F /  -0.3 °C 30.7 °F /  -0.7 °C 30.2in /  1024.0hPa Calm   1mph /  1.6km/h 97% 0in /  0.0mm 0 W/m2
07:32 31.5 °F /  -0.3 °C 30.4 °F /  -0.9 °C 30.3in /  1024.4hPa Calm     96% 0in /  0.0mm 0 W/m2
07:37 31.5 °F /  -0.3 °C 30.7 °F /  -0.7 °C 30.3in /  1024.4hPa Calm     97% 0in /  0.0mm 0 W/m2
07:42 31.5 °F /  -0.3 °C 30.7 °F /  -0.7 °C 30.3in /  1024.4hPa Calm     97% 0in /  0.0mm 0 W/m2
07:47 31.5 °F /  -0.3 °C 30.7 °F /  -0.7 °C 30.3in /  1024.7hPa Calm     97% 0in /  0.0mm 5 W/m2
07:52 31.5 °F /  -0.3 °C 30.7 °F /  -0.7 °C 30.3in /  1024.7hPa Calm     97% 0in /  0.0mm 7 W/m2
07:57 31.5 °F /  -0.3 °C 30.7 °F /  -0.7 °C 30.3in /  1024.7hPa Calm     97% 0in /  0.0mm 9 W/m2
08:02 31.5 °F /  -0.3 °C 30.7 °F /  -0.7 °C 30.3in /  1024.7hPa East 0.9mph /  1.4km/h 2mph /  3.2km/h 97% 0in /  0.0mm 11 W/m2
08:40 31.5 °F /  -0.3 °C 30.7 °F /  -0.7 °C 30.3in /  1025.1hPa Calm     97% 0in /  0.0mm 33 W/m2
08:45 31.5 °F /  -0.3 °C 30.7 °F /  -0.7 °C 30.3in /  1025.1hPa Calm     97% 0in /  0.0mm 33 W/m2
08:50 31.5 °F /  -0.3 °C 30.7 °F /  -0.7 °C 30.3in /  1025.1hPa Calm     97% 0in /  0.0mm 37 W/m2
08:55 31.5 °F /  -0.3 °C 30.7 °F /  -0.7 °C 30.3in /  1025.1hPa Calm     97% 0in /  0.0mm 42 W/m2
09:00 31.6 °F /  -0.2 °C 30.9 °F /  -0.6 °C 30.3in /  1025.1hPa Calm     97% 0in /  0.0mm 47 W/m2
09:06 31.6 °F /  -0.2 °C 30.9 °F /  -0.6 °C 30.3in /  1025.1hPa Calm     97% 0in /  0.0mm 54 W/m2
09:11 31.6 °F /  -0.2 °C 30.9 °F /  -0.6 °C 30.3in /  1025.4hPa Calm     97% 0in /  0.0mm 47 W/m2
09:16 31.6 °F /  -0.2 °C 30.9 °F /  -0.6 °C 30.3in /  1025.4hPa East 0.9mph /  1.4km/h 1mph /  1.6km/h 97% 0in /  0.0mm 54 W/m2
09:21 31.6 °F /  -0.2 °C 30.9 °F /  -0.6 °C 30.3in /  1025.4hPa Calm   1mph /  1.6km/h 97% 0in /  0.0mm 53 W/m2
09:26 31.6 °F /  -0.2 °C 30.9 °F /  -0.6 °C 30.3in /  1025.4hPa East 0.9mph /  1.4km/h 2mph /  3.2km/h 97% 0in /  0.0mm 56 W/m2
09:31 31.8 °F /  -0.1 °C 31.1 °F /  -0.5 °C 30.3in /  1025.4hPa Calm   2mph /  3.2km/h 97% 0in /  0.0mm 74 W/m2
09:36 31.8 °F /  -0.1 °C 31.1 °F /  -0.5 °C 30.3in /  1025.4hPa ESE 2mph /  3.2km/h 3mph /  4.8km/h 97% 0in /  0.0mm 84 W/m2
09:41 31.8 °F /  -0.1 °C 31.1 °F /  -0.5 °C 30.3in /  1025.4hPa Calm   2mph /  3.2km/h 97% 0in /  0.0mm 81 W/m2
09:46 31.8 °F /  -0.1 °C 31.1 °F /  -0.5 °C 30.3in /  1025.7hPa East 2mph /  3.2km/h 2mph /  3.2km/h 97% 0in /  0.0mm 84 W/m2
09:51 32 °F /  0 °C 31.3 °F /  -0.4 °C 30.3in /  1025.4hPa Calm   1mph /  1.6km/h 97% 0in /  0.0mm 90 W/m2
09:56 32.2 °F /  0.1 °C 31.5 °F /  -0.3 °C 30.3in /  1025.4hPa East 0.9mph /  1.4km/h 2mph /  3.2km/h 97% 0in /  0.0mm 95 W/m2
10:01 32.2 °F /  0.1 °C 31.5 °F /  -0.3 °C 30.3in /  1025.4hPa Calm   2mph /  3.2km/h 97% 0in /  0.0mm 93 W/m2
10:06 32.2 °F /  0.1 °C 31.5 °F /  -0.3 °C 30.3in /  1025.7hPa ESE 2mph /  3.2km/h 2mph /  3.2km/h 97% 0in /  0.0mm 91 W/m2
10:11 32.2 °F /  0.1 °C 31.5 °F /  -0.3 °C 30.3in /  1025.7hPa Calm   3mph /  4.8km/h 97% 0in /  0.0mm 90 W/m2
10:16 32.4 °F /  0.2 °C 31.6 °F /  -0.2 °C 30.3in /  1025.7hPa ENE 2mph /  3.2km/h 3mph /  4.8km/h 97% 0in /  0.0mm 98 W/m2
10:21 32.4 °F /  0.2 °C 31.6 °F /  -0.2 °C 30.3in /  1025.4hPa Calm   2mph /  3.2km/h 97% 0in /  0.0mm 93 W/m2
10:26 32.5 °F /  0.3 °C 31.8 °F /  -0.1 °C 30.3in /  1025.4hPa East 0.9mph /  1.4km/h 3mph /  4.8km/h 97% 0in /  0.0mm 102 W/m2
10:31 32.5 °F /  0.3 °C 31.8 °F /  -0.1 °C 30.3in /  1025.4hPa Calm   2mph /  3.2km/h 97% 0in /  0.0mm 91 W/m2
10:36 32.5 °F /  0.3 °C 31.8 °F /  -0.1 °C 30.3in /  1025.4hPa East 0.9mph /  1.4km/h 2mph /  3.2km/h 97% 0in /  0.0mm 91 W/m2
10:41 32.5 °F /  0.3 °C 31.8 °F /  -0.1 °C 30.3in /  1025.4hPa Calm   1mph /  1.6km/h 97% 0in /  0.0mm 98 W/m2
10:46 32.7 °F /  0.4 °C 32 °F /  0 °C 30.3in /  1025.4hPa ESE 2mph /  3.2km/h 3mph /  4.8km/h 97% 0in /  0.0mm 102 W/m2
10:51 32.7 °F /  0.4 °C 32 °F /  0 °C 30.3in /  1025.4hPa Calm   1mph /  1.6km/h 97% 0in /  0.0mm 95 W/m2
10:56 32.9 °F /  0.5 °C 32.2 °F /  0.1 °C 30.3in /  1025.4hPa Calm     97% 0in /  0.0mm 95 W/m2
11:01 33.1 °F /  0.6 °C 32.4 °F /  0.2 °C 30.3in /  1025.4hPa Calm   2mph /  3.2km/h 97% 0in /  0.0mm 90 W/m2
11:06 33.3 °F /  0.7 °C 32.5 °F /  0.3 °C 30.3in /  1025.4hPa East 2mph /  3.2km/h 2mph /  3.2km/h 97% 0in /  0.0mm 104 W/m2
11:11 33.4 °F /  0.8 °C 32.7 °F /  0.4 °C 30.3in /  1025.4hPa Calm   3mph /  4.8km/h 97% 0in /  0.0mm 102 W/m2
11:16 33.4 °F /  0.8 °C 32.7 °F /  0.4 °C 30.3in /  1025.4hPa ESE 0.9mph /  1.4km/h 2mph /  3.2km/h 97% 0in /  0.0mm 97 W/m2
11:21 33.6 °F /  0.9 °C 32.9 °F /  0.5 °C 30.3in /  1025.1hPa ENE 0.9mph /  1.4km/h 3mph /  4.8km/h 97% 0in /  0.0mm 98 W/m2
11:26 33.4 °F /  0.8 °C 32.7 °F /  0.4 °C 30.3in /  1025.4hPa East 2mph /  3.2km/h 3mph /  4.8km/h 97% 0in /  0.0mm 104 W/m2
11:31 33.6 °F /  0.9 °C 32.9 °F /  0.5 °C 30.3in /  1025.4hPa ENE 0.9mph /  1.4km/h 2mph /  3.2km/h 97% 0in /  0.0mm 114 W/m2
11:36 33.6 °F /  0.9 °C 32.9 °F /  0.5 °C 30.3in /  1025.4hPa Calm   3mph /  4.8km/h 97% 0in /  0.0mm 118 W/m2
11:41 34 °F /  1.1 °C 33.3 °F /  0.7 °C 30.3in /  1025.4hPa East 2.9mph /  4.7km/h 3mph /  4.8km/h 97% 0in /  0.0mm 109 W/m2
11:46 34 °F /  1.1 °C 33.3 °F /  0.7 °C 30.3in /  1025.4hPa Calm   2mph /  3.2km/h 97% 0in /  0.0mm 116 W/m2
11:51 34 °F /  1.1 °C 33.3 °F /  0.7 °C 30.3in /  1025.4hPa ESE 2mph /  3.2km/h 3mph /  4.8km/h 97% 0in /  0.0mm 114 W/m2
11:56 34.2 °F /  1.2 °C 33.4 °F /  0.8 °C 30.3in /  1025.1hPa East 2mph /  3.2km/h 2mph /  3.2km/h 97% 0in /  0.0mm 121 W/m2
12:01 34.2 °F /  1.2 °C 33.4 °F /  0.8 °C 30.3in /  1025.4hPa ESE 2mph /  3.2km/h 2mph /  3.2km/h 97% 0in /  0.0mm 130 W/m2
12:06 34.2 °F /  1.2 °C 33.4 °F /  0.8 °C 30.3in /  1025.4hPa Calm   2mph /  3.2km/h 97% 0in /  0.0mm 121 W/m2
12:11 34.3 °F /  1.3 °C 33.6 °F /  0.9 °C 30.3in /  1025.1hPa NE 0.9mph /  1.4km/h 2mph /  3.2km/h 97% 0in /  0.0mm 120 W/m2
12:16 34.3 °F /  1.3 °C 33.6 °F /  0.9 °C 30.3in /  1025.1hPa East 0.9mph /  1.4km/h 3mph /  4.8km/h 97% 0in /  0.0mm 114 W/m2
12:21 34.3 °F /  1.3 °C 33.6 °F /  0.9 °C 30.3in /  1025.1hPa East 2mph /  3.2km/h 2mph /  3.2km/h 97% 0in /  0.0mm 123 W/m2
12:26 34.5 °F /  1.4 °C 33.8 °F /  1 °C 30.3in /  1025.1hPa Calm   2mph /  3.2km/h 97% 0in /  0.0mm 111 W/m2
12:31 34.9 °F /  1.6 °C 34.2 °F /  1.2 °C 30.3in /  1025.1hPa East 2.9mph /  4.7km/h 4mph /  6.4km/h 97% 0in /  0.0mm 116 W/m2
12:36 35.1 °F /  1.7 °C 34.3 °F /  1.3 °C 30.3in /  1025.1hPa Calm   2mph /  3.2km/h 97% 0in /  0.0mm 125 W/m2
12:41 35.1 °F /  1.7 °C 34.3 °F /  1.3 °C 30.3in /  1025.1hPa ESE 2mph /  3.2km/h 3mph /  4.8km/h 97% 0in /  0.0mm 118 W/m2
12:46 35.2 °F /  1.8 °C 34.5 °F /  1.4 °C 30.3in /  1025.1hPa East 0.9mph /  1.4km/h 2mph /  3.2km/h 97% 0in /  0.0mm 109 W/m2
12:51 35.1 °F /  1.7 °C 34.3 °F /  1.3 °C 30.3in /  1024.7hPa Calm   3mph /  4.8km/h 97% 0in /  0.0mm 113 W/m2
12:56 35.2 °F /  1.8 °C 34.5 °F /  1.4 °C 30.3in /  1024.7hPa East 2mph /  3.2km/h 2mph /  3.2km/h 97% 0in /  0.0mm 109 W/m2
13:01 35.2 °F /  1.8 °C 34.5 °F /  1.4 °C 30.3in /  1024.7hPa Calm   2mph /  3.2km/h 97% 0in /  0.0mm 116 W/m2
13:06 35.2 °F /  1.8 °C 34.5 °F /  1.4 °C 30.3in /  1024.7hPa ESE 0.9mph /  1.4km/h 1mph /  1.6km/h 97% 0in /  0.0mm 105 W/m2
13:11 35.4 °F /  1.9 °C 34.7 °F /  1.5 °C 30.3in /  1024.7hPa Calm     97% 0in /  0.0mm 120 W/m2
13:16 35.8 °F /  2.1 °C 35.1 °F /  1.7 °C 30.3in /  1024.7hPa East 2mph /  3.2km/h 4mph /  6.4km/h 97% 0in /  0.0mm 114 W/m2
13:21 35.8 °F /  2.1 °C 35.1 °F /  1.7 °C 30.3in /  1024.7hPa East 2mph /  3.2km/h 2mph /  3.2km/h 97% 0in /  0.0mm 114 W/m2
13:26 35.8 °F /  2.1 °C 35.1 °F /  1.7 °C 30.3in /  1024.7hPa Calm   3mph /  4.8km/h 97% 0in /  0.0mm 127 W/m2
13:31 36 °F /  2.2 °C 35.2 °F /  1.8 °C 30.3in /  1024.4hPa ESE 0.9mph /  1.4km/h 2mph /  3.2km/h 97% 0in /  0.0mm 134 W/m2
13:36 36.1 °F /  2.3 °C 35.4 °F /  1.9 °C 30.3in /  1024.4hPa ENE 2.9mph /  4.7km/h 3mph /  4.8km/h 97% 0in /  0.0mm 100 W/m2
13:41 36.1 °F /  2.3 °C 35.4 °F /  1.9 °C 30.3in /  1024.4hPa Calm     97% 0in /  0.0mm 111 W/m2
13:46 36.1 °F /  2.3 °C 35.4 °F /  1.9 °C 30.3in /  1024.4hPa Calm     97% 0in /  0.0mm 107 W/m2
13:51 36.1 °F /  2.3 °C 35.4 °F /  1.9 °C 30.3in /  1024.4hPa ENE 0.9mph /  1.4km/h 3mph /  4.8km/h 97% 0in /  0.0mm 98 W/m2
13:56 36.3 °F /  2.4 °C 35.6 °F /  2 °C 30.3in /  1024.4hPa East 0.9mph /  1.4km/h 2mph /  3.2km/h 97% 0in /  0.0mm 93 W/m2
14:01 36.3 °F /  2.4 °C 35.6 °F /  2 °C 30.3in /  1024.4hPa ESE 2mph /  3.2km/h 3mph /  4.8km/h 97% 0in /  0.0mm 102 W/m2
14:06 36.3 °F /  2.4 °C 35.6 °F /  2 °C 30.3in /  1024.4hPa Calm     97% 0in /  0.0mm 93 W/m2
14:11 36.5 °F /  2.5 °C 35.8 °F /  2.1 °C 30.3in /  1024.4hPa ESE 0.9mph /  1.4km/h 3mph /  4.8km/h 97% 0in /  0.0mm 83 W/m2
14:16 36.5 °F /  2.5 °C 35.8 °F /  2.1 °C 30.3in /  1024.4hPa Calm   1mph /  1.6km/h 97% 0in /  0.0mm 77 W/m2
14:21 36.3 °F /  2.4 °C 35.6 °F /  2 °C 30.3in /  1024.4hPa Calm   2mph /  3.2km/h 97% 0in /  0.0mm 93 W/m2
14:26 36.5 °F /  2.5 °C 35.8 °F /  2.1 °C 30.3in /  1024.4hPa Calm   3mph /  4.8km/h 97% 0in /  0.0mm 97 W/m2
14:31 36.5 °F /  2.5 °C 35.8 °F /  2.1 °C 30.3in /  1024.4hPa ESE 2.9mph /  4.7km/h 3mph /  4.8km/h 97% 0in /  0.0mm 91 W/m2
14:36 36.5 °F /  2.5 °C 35.8 °F /  2.1 °C 30.3in /  1024.4hPa Calm   3mph /  4.8km/h 97% 0in /  0.0mm 109 W/m2
14:41 36.5 °F /  2.5 °C 35.8 °F /  2.1 °C 30.3in /  1024.4hPa East 0.9mph /  1.4km/h 4mph /  6.4km/h 97% 0in /  0.0mm 81 W/m2
14:46 36.5 °F /  2.5 °C 35.8 °F /  2.1 °C 30.3in /  1024.4hPa ENE 2mph /  3.2km/h 4mph /  6.4km/h 97% 0in /  0.0mm 93 W/m2
14:51 36.7 °F /  2.6 °C 36 °F /  2.2 °C 30.3in /  1024.4hPa ESE 2mph /  3.2km/h 2mph /  3.2km/h 97% 0in /  0.0mm 100 W/m2
14:56 36.9 °F /  2.7 °C 36.1 °F /  2.3 °C 30.3in /  1024.4hPa Calm   3mph /  4.8km/h 97% 0in /  0.0mm 84 W/m2
15:01 36.9 °F /  2.7 °C 36.1 °F /  2.3 °C 30.3in /  1024.4hPa Calm   1mph /  1.6km/h 97% 0in /  0.0mm 86 W/m2
15:06 36.9 °F /  2.7 °C 36.1 °F /  2.3 °C 30.3in /  1024.4hPa East 2.9mph /  4.7km/h 3mph /  4.8km/h 97% 0in /  0.0mm 98 W/m2
15:11 36.9 °F /  2.7 °C 36.1 °F /  2.3 °C 30.3in /  1024.4hPa East 0.9mph /  1.4km/h 2mph /  3.2km/h 97% 0in /  0.0mm 95 W/m2
15:16 37 °F /  2.8 °C 36.3 °F /  2.4 °C 30.3in /  1024.4hPa Calm     97% 0in /  0.0mm 88 W/m2
15:21 37 °F /  2.8 °C 36.3 °F /  2.4 °C 30.3in /  1024.4hPa Calm     97% 0in /  0.0mm 81 W/m2
15:26 37.2 °F /  2.9 °C 36.5 °F /  2.5 °C 30.3in /  1024.4hPa Calm     97% 0in /  0.0mm 74 W/m2
15:31 37.4 °F /  3 °C 36.7 °F /  2.6 °C 30.3in /  1024.4hPa Calm   1mph /  1.6km/h 97% 0in /  0.0mm 62 W/m2
15:36 37.4 °F /  3 °C 36.7 °F /  2.6 °C 30.3in /  1024.4hPa Calm   1mph /  1.6km/h 97% 0in /  0.0mm 58 W/m2
15:41 37.4 °F /  3 °C 36.7 °F /  2.6 °C 30.3in /  1024.4hPa Calm     97% 0in /  0.0mm 60 W/m2
15:46 37.2 °F /  2.9 °C 36.5 °F /  2.5 °C 30.3in /  1024.4hPa Calm     97% 0in /  0.0mm 47 W/m2
15:51 37.2 °F /  2.9 °C 36.5 °F /  2.5 °C 30.3in /  1024.4hPa Calm     97% 0in /  0.0mm 37 W/m2
15:56 37.2 °F /  2.9 °C 36.5 °F /  2.5 °C 30.3in /  1024.4hPa Calm     97% 0in /  0.0mm 35 W/m2
16:01 37.2 °F /  2.9 °C 36.5 °F /  2.5 °C 30.3in /  1024.4hPa East 0.9mph /  1.4km/h 2mph /  3.2km/h 97% 0in /  0.0mm 28 W/m2
16:06 37 °F /  2.8 °C 36.3 °F /  2.4 °C 30.3in /  1024.4hPa Calm     97% 0in /  0.0mm 25 W/m2
16:11 37 °F /  2.8 °C 36.3 °F /  2.4 °C 30.3in /  1024.4hPa Calm     97% 0in /  0.0mm 19 W/m2
16:16 37 °F /  2.8 °C 36.3 °F /  2.4 °C 30.3in /  1024.4hPa East 0.9mph /  1.4km/h 2mph /  3.2km/h 97% 0in /  0.0mm 18 W/m2
16:21 37 °F /  2.8 °C 36.3 °F /  2.4 °C 30.3in /  1024.4hPa Calm   2mph /  3.2km/h 97% 0in /  0.0mm 16 W/m2
16:26 36.9 °F /  2.7 °C 36.1 °F /  2.3 °C 30.3in /  1024.4hPa Calm   2mph /  3.2km/h 97% 0in /  0.0mm 12 W/m2
16:31 36.9 °F /  2.7 °C 36.1 °F /  2.3 °C 30.3in /  1024.4hPa Calm   1mph /  1.6km/h 97% 0in /  0.0mm 9 W/m2
16:36 36.7 °F /  2.6 °C 36 °F /  2.2 °C 30.3in /  1024.4hPa Calm   1mph /  1.6km/h 97% 0in /  0.0mm 7 W/m2
16:42 36.5 °F /  2.5 °C 35.8 °F /  2.1 °C 30.3in /  1024.4hPa Calm     97% 0in /  0.0mm 5 W/m2
16:47 36.3 °F /  2.4 °C 35.6 °F /  2 °C 30.3in /  1024.4hPa Calm     97% 0in /  0.0mm 0 W/m2
16:52 36.3 °F /  2.4 °C 35.6 °F /  2 °C 30.3in /  1024.4hPa Calm     97% 0in /  0.0mm 0 W/m2
16:57 36.3 °F /  2.4 °C 35.6 °F /  2 °C 30.3in /  1024.4hPa East 0.9mph /  1.4km/h 2mph /  3.2km/h 97% 0in /  0.0mm 0 W/m2
17:02 36.3 °F /  2.4 °C 35.6 °F /  2 °C 30.3in /  1024.4hPa Calm     97% 0in /  0.0mm 0 W/m2
17:07 36.3 °F /  2.4 °C 35.6 °F /  2 °C 30.3in /  1024.4hPa Calm   3mph /  4.8km/h 97% 0in /  0.0mm 0 W/m2
17:12 36.1 °F /  2.3 °C 35.4 °F /  1.9 °C 30.3in /  1024.4hPa Calm   2mph /  3.2km/h 97% 0in /  0.0mm 0 W/m2
17:17 36.1 °F /  2.3 °C 35.4 °F /  1.9 °C 30.3in /  1024.4hPa Calm   3mph /  4.8km/h 97% 0in /  0.0mm 0 W/m2
17:22 36.1 °F /  2.3 °C 35.4 °F /  1.9 °C 30.3in /  1024.4hPa East 0.9mph /  1.4km/h 2mph /  3.2km/h 97% 0in /  0.0mm 0 W/m2
17:27 36 °F /  2.2 °C 35.2 °F /  1.8 °C 30.3in /  1024.4hPa Calm     97% 0in /  0.0mm 0 W/m2
17:32 36 °F /  2.2 °C 35.2 °F /  1.8 °C 30.3in /  1024.7hPa East 0.9mph /  1.4km/h 2mph /  3.2km/h 97% 0in /  0.0mm 0 W/m2
17:37 36 °F /  2.2 °C 35.2 °F /  1.8 °C 30.3in /  1024.7hPa Calm     97% 0in /  0.0mm 0 W/m2
17:42 36 °F /  2.2 °C 35.2 °F /  1.8 °C 30.3in /  1024.7hPa Calm   1mph /  1.6km/h 97% 0in /  0.0mm 0 W/m2
17:47 36 °F /  2.2 °C 35.2 °F /  1.8 °C 30.3in /  1024.7hPa East 2mph /  3.2km/h 2mph /  3.2km/h 97% 0in /  0.0mm 0 W/m2
17:52 36 °F /  2.2 °C 35.2 °F /  1.8 °C 30.3in /  1024.7hPa ESE 0.9mph /  1.4km/h 2mph /  3.2km/h 97% 0in /  0.0mm 0 W/m2
17:57 35.8 °F /  2.1 °C 35.1 °F /  1.7 °C 30.3in /  1024.7hPa Calm     97% 0in /  0.0mm 0 W/m2
18:02 35.8 °F /  2.1 °C 35.1 °F /  1.7 °C 30.3in /  1024.7hPa Calm     97% 0in /  0.0mm 0 W/m2
18:07 35.8 °F /  2.1 °C 35.1 °F /  1.7 °C 30.3in /  1024.7hPa Calm     97% 0in /  0.0mm 0 W/m2
18:12 35.8 °F /  2.1 °C 35.1 °F /  1.7 °C 30.3in /  1024.7hPa ESE 0.9mph /  1.4km/h 1mph /  1.6km/h 97% 0in /  0.0mm 0 W/m2
18:17 35.8 °F /  2.1 °C 35.1 °F /  1.7 °C 30.3in /  1024.7hPa ESE 2mph /  3.2km/h 2mph /  3.2km/h 97% 0in /  0.0mm 0 W/m2
18:22 35.6 °F /  2 °C 34.9 °F /  1.6 °C 30.3in /  1024.7hPa Calm   1mph /  1.6km/h 97% 0in /  0.0mm 0 W/m2
18:27 35.4 °F /  1.9 °C 34.7 °F /  1.5 °C 30.3in /  1024.7hPa Calm     97% 0in /  0.0mm 0 W/m2
18:32 35.4 °F /  1.9 °C 34.7 °F /  1.5 °C 30.3in /  1024.7hPa Calm   1mph /  1.6km/h 97% 0in /  0.0mm 0 W/m2
18:37 35.6 °F /  2 °C 34.9 °F /  1.6 °C 30.3in /  1024.7hPa East 2mph /  3.2km/h 3mph /  4.8km/h 97% 0in /  0.0mm 0 W/m2
18:42 35.4 °F /  1.9 °C 34.7 °F /  1.5 °C 30.3in /  1024.7hPa Calm     97% 0in /  0.0mm 0 W/m2
18:47 35.2 °F /  1.8 °C 34.5 °F /  1.4 °C 30.3in /  1024.7hPa Calm   3mph /  4.8km/h 97% 0in /  0.0mm 0 W/m2
18:52 35.2 °F /  1.8 °C 34.5 °F /  1.4 °C 30.3in /  1024.7hPa Calm   1mph /  1.6km/h 97% 0in /  0.0mm 0 W/m2
18:57 35.2 °F /  1.8 °C 34.5 °F /  1.4 °C 30.3in /  1024.7hPa East 0.9mph /  1.4km/h 2mph /  3.2km/h 97% 0in /  0.0mm 0 W/m2
19:02 35.2 °F /  1.8 °C 34.5 °F /  1.4 °C 30.3in /  1024.7hPa Calm     97% 0in /  0.0mm 0 W/m2
19:07 35.2 °F /  1.8 °C 34.5 °F /  1.4 °C 30.3in /  1024.7hPa Calm     97% 0in /  0.0mm 0 W/m2
19:12 35.1 °F /  1.7 °C 34.3 °F /  1.3 °C 30.3in /  1024.7hPa East 0.9mph /  1.4km/h 2mph /  3.2km/h 97% 0in /  0.0mm 0 W/m2
19:17 35.1 °F /  1.7 °C 34.3 °F /  1.3 °C 30.3in /  1024.7hPa Calm   1mph /  1.6km/h 97% 0in /  0.0mm 0 W/m2
19:22 35.1 °F /  1.7 °C 34.3 °F /  1.3 °C 30.3in /  1024.4hPa Calm     97% 0in /  0.0mm 0 W/m2
19:27 35.1 °F /  1.7 °C 34.3 °F /  1.3 °C 30.3in /  1024.4hPa Calm   2mph /  3.2km/h 97% 0in /  0.0mm 0 W/m2
19:32 34.9 °F /  1.6 °C 34.2 °F /  1.2 °C 30.3in /  1024.4hPa Calm     97% 0in /  0.0mm 0 W/m2
19:37 34.9 °F /  1.6 °C 34.2 °F /  1.2 °C 30.3in /  1024.4hPa Calm     97% 0in /  0.0mm 0 W/m2
19:42 34.9 °F /  1.6 °C 34.2 °F /  1.2 °C 30.3in /  1024.4hPa Calm   1mph /  1.6km/h 97% 0in /  0.0mm 0 W/m2
19:47 34.9 °F /  1.6 °C 34.2 °F /  1.2 °C 30.3in /  1024.4hPa Calm   2mph /  3.2km/h 97% 0in /  0.0mm 0 W/m2
19:52 34.9 °F /  1.6 °C 34.2 °F /  1.2 °C 30.3in /  1024.4hPa ESE 2mph /  3.2km/h 2mph /  3.2km/h 97% 0in /  0.0mm 0 W/m2
19:57 34.9 °F /  1.6 °C 34.2 °F /  1.2 °C 30.3in /  1024.4hPa Calm   4mph /  6.4km/h 97% 0in /  0.0mm 0 W/m2
20:02 34.9 °F /  1.6 °C 34.2 °F /  1.2 °C 30.3in /  1024.4hPa Calm   1mph /  1.6km/h 97% 0in /  0.0mm 0 W/m2
20:07 34.9 °F /  1.6 °C 34.2 °F /  1.2 °C 30.3in /  1024.4hPa Calm   3mph /  4.8km/h 97% 0in /  0.0mm 0 W/m2
20:12 34.9 °F /  1.6 °C 34.2 °F /  1.2 °C 30.3in /  1024.4hPa Calm     97% 0in /  0.0mm 0 W/m2
20:17 34.9 °F /  1.6 °C 34.2 °F /  1.2 °C 30.3in /  1024.4hPa ESE 0.9mph /  1.4km/h 1mph /  1.6km/h 97% 0in /  0.0mm 0 W/m2
20:22 34.9 °F /  1.6 °C 34.2 °F /  1.2 °C 30.3in /  1024.4hPa Calm   1mph /  1.6km/h 97% 0in /  0.0mm 0 W/m2
20:27 34.9 °F /  1.6 °C 34.2 °F /  1.2 °C 30.3in /  1024.4hPa Calm   1mph /  1.6km/h 97% 0in /  0.0mm 0 W/m2
20:33 34.9 °F /  1.6 °C 34.2 °F /  1.2 °C 30.3in /  1024.4hPa East 2mph /  3.2km/h 2mph /  3.2km/h 97% 0in /  0.0mm 0 W/m2
20:38 34.9 °F /  1.6 °C 34.2 °F /  1.2 °C 30.3in /  1024.4hPa ENE 0.9mph /  1.4km/h 2mph /  3.2km/h 97% 0in /  0.0mm 0 W/m2
20:43 34.9 °F /  1.6 °C 34.2 °F /  1.2 °C 30.3in /  1024.4hPa Calm   1mph /  1.6km/h 97% 0in /  0.0mm 0 W/m2
20:48 34.9 °F /  1.6 °C 34.2 °F /  1.2 °C 30.3in /  1024.4hPa Calm   1mph /  1.6km/h 97% 0in /  0.0mm 0 W/m2
20:53 34.9 °F /  1.6 °C 34.2 °F /  1.2 °C 30.3in /  1024.4hPa ENE 0.9mph /  1.4km/h 2mph /  3.2km/h 97% 0in /  0.0mm 0 W/m2
20:58 34.9 °F /  1.6 °C 34.2 °F /  1.2 °C 30.3in /  1024.4hPa ESE 0.9mph /  1.4km/h 2mph /  3.2km/h 97% 0in /  0.0mm 0 W/m2
21:03 34.9 °F /  1.6 °C 34.2 °F /  1.2 °C 30.3in /  1024.4hPa Calm   1mph /  1.6km/h 97% 0in /  0.0mm 0 W/m2
21:08 34.9 °F /  1.6 °C 34.2 °F /  1.2 °C 30.3in /  1024.4hPa Calm   1mph /  1.6km/h 97% 0in /  0.0mm 0 W/m2
21:13 34.9 °F /  1.6 °C 34.2 °F /  1.2 °C 30.3in /  1024.4hPa ESE 0.9mph /  1.4km/h 2mph /  3.2km/h 97% 0in /  0.0mm 0 W/m2
21:18 35.1 °F /  1.7 °C 34.3 °F /  1.3 °C 30.2in /  1024.0hPa ESE 0.9mph /  1.4km/h 3mph /  4.8km/h 97% 0in /  0.0mm 0 W/m2
21:23 35.1 °F /  1.7 °C 34.3 °F /  1.3 °C 30.2in /  1024.0hPa Calm   1mph /  1.6km/h 97% 0in /  0.0mm 0 W/m2
21:28 35.1 °F /  1.7 °C 34.3 °F /  1.3 °C 30.3in /  1024.4hPa Calm   2mph /  3.2km/h 97% 0in /  0.0mm 0 W/m2
21:33 34.9 °F /  1.6 °C 34.2 °F /  1.2 °C 30.2in /  1024.0hPa Calm   2mph /  3.2km/h 97% 0in /  0.0mm 0 W/m2
21:38 34.9 °F /  1.6 °C 34.2 °F /  1.2 °C 30.2in /  1024.0hPa Calm   1mph /  1.6km/h 97% 0in /  0.0mm 0 W/m2
21:43 34.9 °F /  1.6 °C 34.2 °F /  1.2 °C 30.2in /  1024.0hPa Calm   2mph /  3.2km/h 97% 0in /  0.0mm 0 W/m2
21:48 34.9 °F /  1.6 °C 34.2 °F /  1.2 °C 30.2in /  1024.0hPa North 0.9mph /  1.4km/h 1mph /  1.6km/h 97% 0in /  0.0mm 0 W/m2
21:53 34.9 °F /  1.6 °C 34.2 °F /  1.2 °C 30.2in /  1024.0hPa North 0.9mph /  1.4km/h 1mph /  1.6km/h 97% 0in /  0.0mm 0 W/m2
21:58 34.9 °F /  1.6 °C 34.2 °F /  1.2 °C 30.2in /  1024.0hPa Calm   1mph /  1.6km/h 97% 0in /  0.0mm 0 W/m2
22:03 34.7 °F /  1.5 °C 34 °F /  1.1 °C 30.2in /  1024.0hPa Calm     97% 0in /  0.0mm 0 W/m2
22:08 34.7 °F /  1.5 °C 34 °F /  1.1 °C 30.2in /  1024.0hPa Calm     97% 0in /  0.0mm 0 W/m2
22:13 34.7 °F /  1.5 °C 34 °F /  1.1 °C 30.2in /  1023.7hPa Calm   2mph /  3.2km/h 97% 0in /  0.0mm 0 W/m2
22:18 34.9 °F /  1.6 °C 34.2 °F /  1.2 °C 30.2in /  1023.7hPa ENE 0.9mph /  1.4km/h 3mph /  4.8km/h 97% 0in /  0.0mm 0 W/m2
22:23 34.7 °F /  1.5 °C 34 °F /  1.1 °C 30.2in /  1023.7hPa ENE 0.9mph /  1.4km/h 1mph /  1.6km/h 97% 0in /  0.0mm 0 W/m2
22:28 34.7 °F /  1.5 °C 34 °F /  1.1 °C 30.2in /  1023.7hPa Calm   1mph /  1.6km/h 97% 0in /  0.0mm 0 W/m2
22:33 34.7 °F /  1.5 °C 34 °F /  1.1 °C 30.2in /  1023.7hPa Calm     97% 0in /  0.0mm 0 W/m2
22:38 34.7 °F /  1.5 °C 34 °F /  1.1 °C 30.2in /  1023.7hPa Calm   1mph /  1.6km/h 97% 0in /  0.0mm 0 W/m2
22:43 34.7 °F /  1.5 °C 34 °F /  1.1 °C 30.2in /  1023.7hPa Calm     97% 0in /  0.0mm 0 W/m2
22:48 34.7 °F /  1.5 °C 34 °F /  1.1 °C 30.2in /  1023.7hPa Calm     97% 0in /  0.0mm 0 W/m2
22:53 34.9 °F /  1.6 °C 34.2 °F /  1.2 °C 30.2in /  1023.7hPa Calm     97% 0in /  0.0mm 0 W/m2
22:58 34.9 °F /  1.6 °C 34.2 °F /  1.2 °C 30.2in /  1023.7hPa Calm   2mph /  3.2km/h 97% 0in /  0.0mm 0 W/m2
23:03 34.9 °F /  1.6 °C 34.2 °F /  1.2 °C 30.2in /  1023.7hPa Calm     97% 0in /  0.0mm 0 W/m2
23:08 34.9 °F /  1.6 °C 34.2 °F /  1.2 °C 30.2in /  1023.7hPa Calm     97% 0in /  0.0mm 0 W/m2
23:13 35.1 °F /  1.7 °C 34.3 °F /  1.3 °C 30.2in /  1023.7hPa Calm   2mph /  3.2km/h 97% 0in /  0.0mm 0 W/m2
23:18 35.1 °F /  1.7 °C 34.3 °F /  1.3 °C 30.2in /  1023.7hPa Calm     97% 0in /  0.0mm 0 W/m2
23:23 35.1 °F /  1.7 °C 34.3 °F /  1.3 °C 30.2in /  1023.7hPa Calm     97% 0in /  0.0mm 0 W/m2
23:28 35.1 °F /  1.7 °C 34.3 °F /  1.3 °C 30.2in /  1023.4hPa Calm   4mph /  6.4km/h 97% 0in /  0.0mm 0 W/m2
23:33 35.2 °F /  1.8 °C 34.7 °F /  1.5 °C 30.2in /  1023.4hPa Calm   1mph /  1.6km/h 98% 0.01in /  0.2mm 0 W/m2
23:38 35.2 °F /  1.8 °C 34.7 °F /  1.5 °C 30.2in /  1023.4hPa Calm   3mph /  4.8km/h 98% 0.01in /  0.2mm 0 W/m2
23:43 35.2 °F /  1.8 °C 34.7 °F /  1.5 °C 30.2in /  1023.4hPa Calm     98% 0.01in /  0.2mm 0 W/m2
23:48 35.2 °F /  1.8 °C 34.7 °F /  1.5 °C 30.2in /  1023.4hPa Calm     98% 0.01in /  0.2mm 0 W/m2
23:53 35.2 °F /  1.8 °C 34.7 °F /  1.5 °C 30.2in /  1023.4hPa Calm   1mph /  1.6km/h 98% 0.01in /  0.2mm 0 W/m2
23:58 35.2 °F /  1.8 °C 34.7 °F /  1.5 °C 30.2in /  1023.4hPa Calm     98% 0.01in /  0.2mm 0 W/m2
Juneau County Weather
Compliments of Weather Underground - 4 mb